Time,TemperatureF,DewpointF,PressureIn,WindDirection,WindDirectionDegrees,WindSpeedMPH,WindSpeedGustMPH,Humidity,HourlyPrecipIn,Conditions,Clouds,dailyrainin,SoftwareType,DateUTC
2013-06-19 00:00:00,60.4,60.1,29.84,NW,315,0.0,0.7,99,0.00,,,0.00,meteobridge,2013-06-19 04:00:00,
2013-06-19 00:01:00,60.4,60.1,29.84,NW,315,0.0,0.7,99,0.00,,,0.00,meteobridge,2013-06-19 04:01:00,
2013-06-19 00:02:00,60.4,60.1,29.83,SE,135,0.0,0.0,99,0.00,,,0.00,meteobridge,2013-06-19 04:02:00,
2013-06-19 00:07:00,60.4,60.1,29.83,NW,315,0.0,0.7,99,0.00,,,0.00,meteobridge,2013-06-19 04:07:00,
2013-06-19 00:13:00,60.4,60.1,29.83,SE,135,0.7,1.6,99,0.00,,,0.00,meteobridge,2013-06-19 04:13:00,
2013-06-19 00:18:00,60.4,60.1,29.83,South,180,0.0,0.0,99,0.00,,,0.00,meteobridge,2013-06-19 04:18:00,
2013-06-19 00:23:00,60.4,60.1,29.83,South,180,2.2,2.2,99,0.00,,,0.00,meteobridge,2013-06-19 04:23:00,
2013-06-19 00:28:00,60.4,60.1,29.83,North,0,1.6,1.6,99,0.00,,,0.00,meteobridge,2013-06-19 04:28:00,
2013-06-19 00:33:00,60.4,60.1,29.84,NE,45,0.0,3.1,99,0.00,,,0.00,meteobridge,2013-06-19 04:33:00,
2013-06-19 00:38:00,60.4,60.1,29.83,NW,315,0.7,0.7,99,0.00,,,0.00,meteobridge,2013-06-19 04:38:00,
2013-06-19 00:44:00,60.4,60.1,29.83,NW,315,3.1,3.1,99,0.00,,,0.00,meteobridge,2013-06-19 04:44:00,
2013-06-19 00:49:00,60.3,59.9,29.83,East,90,0.7,0.7,99,0.00,,,0.00,meteobridge,2013-06-19 04:49:00,
2013-06-19 00:54:00,60.3,59.9,29.83,West,270,3.1,3.1,99,0.00,,,0.00,meteobridge,2013-06-19 04:54:00,
2013-06-19 00:59:00,60.1,59.7,29.83,NW,315,1.6,1.6,99,0.00,,,0.00,meteobridge,2013-06-19 04:59:00,
2013-06-19 01:04:00,60.1,59.7,29.83,NW,315,3.8,3.8,99,0.00,,,0.00,meteobridge,2013-06-19 05:04:00,
2013-06-19 01:09:00,60.1,59.7,29.83,NE,45,0.7,1.6,99,0.00,,,0.00,meteobridge,2013-06-19 05:09:00,
2013-06-19 01:15:00,59.9,59.5,29.83,SW,225,2.2,2.2,99,0.01,,,0.01,meteobridge,2013-06-19 05:15:00,
2013-06-19 01:20:00,59.7,59.4,29.83,South,180,0.7,1.6,99,0.01,,,0.01,meteobridge,2013-06-19 05:20:00,
2013-06-19 01:25:00,59.7,59.4,29.83,West,270,1.6,1.6,99,0.01,,,0.01,meteobridge,2013-06-19 05:25:00,
2013-06-19 01:30:00,59.7,59.4,29.83,South,180,1.6,2.2,99,0.01,,,0.01,meteobridge,2013-06-19 05:30:00,
2013-06-19 01:35:00,59.7,59.4,29.82,NW,315,2.2,2.2,99,0.01,,,0.01,meteobridge,2013-06-19 05:35:00,
2013-06-19 01:40:00,59.5,59.2,29.82,SE,135,0.7,2.2,99,0.01,,,0.01,meteobridge,2013-06-19 05:40:00,
2013-06-19 01:46:00,59.5,59.2,29.82,NW,315,1.6,2.2,99,0.01,,,0.01,meteobridge,2013-06-19 05:46:00,
2013-06-19 01:51:00,59.5,59.2,29.82,North,0,0.7,2.2,99,0.01,,,0.01,meteobridge,2013-06-19 05:51:00,
2013-06-19 01:56:00,59.4,59.0,29.82,SE,135,0.7,0.7,99,0.01,,,0.01,meteobridge,2013-06-19 05:56:00,
2013-06-19 02:01:00,59.4,59.0,29.82,NW,315,1.6,2.2,99,0.01,,,0.01,meteobridge,2013-06-19 06:01:00,
2013-06-19 02:06:00,59.4,59.0,29.82,NW,315,1.6,1.6,99,0.01,,,0.01,meteobridge,2013-06-19 06:06:00,
2013-06-19 02:11:00,59.2,58.8,29.83,NW,315,5.4,5.4,99,0.01,,,0.01,meteobridge,2013-06-19 06:11:00,
2013-06-19 02:17:00,59.2,58.8,29.82,South,180,1.6,1.6,99,0.00,,,0.01,meteobridge,2013-06-19 06:17:00,
2013-06-19 02:22:00,59.2,58.8,29.83,WNW,293,1.6,2.2,99,0.00,,,0.01,meteobridge,2013-06-19 06:22:00,
2013-06-19 02:27:00,59.0,58.6,29.82,East,90,4.5,4.5,99,0.00,,,0.01,meteobridge,2013-06-19 06:27:00,
2013-06-19 02:32:00,59.0,58.6,29.82,NW,315,1.6,1.6,99,0.00,,,0.01,meteobridge,2013-06-19 06:32:00,
2013-06-19 02:37:00,59.0,58.6,29.83,South,180,2.2,2.2,99,0.00,,,0.01,meteobridge,2013-06-19 06:37:00,
2013-06-19 02:42:00,58.8,58.5,29.83,NW,315,1.6,3.1,99,0.00,,,0.01,meteobridge,2013-06-19 06:42:00,
2013-06-19 02:48:00,58.8,58.5,29.83,NW,315,3.1,3.1,99,0.00,,,0.01,meteobridge,2013-06-19 06:48:00,
2013-06-19 02:53:00,58.6,58.3,29.83,SE,135,1.6,2.2,99,0.00,,,0.01,meteobridge,2013-06-19 06:53:00,
2013-06-19 02:58:00,58.6,58.3,29.83,West,270,0.7,1.6,99,0.00,,,0.01,meteobridge,2013-06-19 06:58:00,
2013-06-19 03:03:00,58.6,58.3,29.83,NE,45,2.2,2.2,99,0.00,,,0.01,meteobridge,2013-06-19 07:03:00,
2013-06-19 03:08:00,58.6,58.3,29.83,West,270,2.2,3.1,99,0.00,,,0.01,meteobridge,2013-06-19 07:08:00,
2013-06-19 03:13:00,58.3,57.9,29.83,NW,315,0.0,2.2,99,0.00,,,0.01,meteobridge,2013-06-19 07:13:00,
2013-06-19 03:19:00,58.5,58.1,29.83,NW,315,2.2,3.1,99,0.00,,,0.01,meteobridge,2013-06-19 07:19:00,
2013-06-19 03:24:00,58.3,57.9,29.83,West,270,2.2,2.2,99,0.00,,,0.01,meteobridge,2013-06-19 07:24:00,
2013-06-19 03:29:00,58.1,57.7,29.83,West,270,2.2,4.5,99,0.00,,,0.01,meteobridge,2013-06-19 07:29:00,
2013-06-19 03:34:00,58.1,57.7,29.83,West,270,2.2,3.8,99,0.00,,,0.01,meteobridge,2013-06-19 07:34:00,
2013-06-19 03:39:00,58.1,57.7,29.83,West,270,1.6,2.2,99,0.00,,,0.01,meteobridge,2013-06-19 07:39:00,
2013-06-19 03:44:00,58.1,57.7,29.83,West,270,3.1,3.1,99,0.00,,,0.01,meteobridge,2013-06-19 07:44:00,
2013-06-19 03:50:00,58.1,57.7,29.83,East,90,3.1,3.1,99,0.00,,,0.01,meteobridge,2013-06-19 07:50:00,
2013-06-19 03:55:00,57.9,57.6,29.83,South,180,0.0,2.2,99,0.00,,,0.01,meteobridge,2013-06-19 07:55:00,
2013-06-19 04:00:00,57.9,57.6,29.83,SW,225,2.2,5.4,99,0.00,,,0.01,meteobridge,2013-06-19 08:00:00,
2013-06-19 04:05:00,57.9,57.6,29.83,NW,315,3.8,3.8,99,0.00,,,0.01,meteobridge,2013-06-19 08:05:00,
2013-06-19 04:10:00,57.7,57.4,29.83,NW,315,9.8,9.8,99,0.00,,,0.01,meteobridge,2013-06-19 08:10:00,
2013-06-19 04:15:00,57.7,57.4,29.82,East,90,2.2,4.5,99,0.00,,,0.01,meteobridge,2013-06-19 08:15:00,
2013-06-19 04:21:00,57.7,57.4,29.82,East,90,3.1,3.1,99,0.00,,,0.01,meteobridge,2013-06-19 08:21:00,
2013-06-19 04:26:00,57.6,57.2,29.82,SE,135,1.6,3.8,99,0.00,,,0.01,meteobridge,2013-06-19 08:26:00,
2013-06-19 04:31:00,57.6,57.2,29.82,NW,315,2.2,2.2,99,0.00,,,0.01,meteobridge,2013-06-19 08:31:00,
2013-06-19 04:36:00,57.6,57.2,29.82,SE,135,1.6,3.8,99,0.00,,,0.01,meteobridge,2013-06-19 08:36:00,
2013-06-19 04:41:00,57.4,57.0,29.83,North,0,1.6,1.6,99,0.00,,,0.01,meteobridge,2013-06-19 08:41:00,
2013-06-19 04:46:00,57.4,57.0,29.83,SW,225,1.6,3.1,99,0.00,,,0.01,meteobridge,2013-06-19 08:46:00,
2013-06-19 04:52:00,57.4,57.0,29.83,North,0,0.7,2.2,99,0.00,,,0.01,meteobridge,2013-06-19 08:52:00,
2013-06-19 04:57:00,57.6,57.2,29.83,West,270,1.6,2.2,99,0.00,,,0.01,meteobridge,2013-06-19 08:57:00,
2013-06-19 05:02:00,57.6,57.2,29.83,East,90,0.7,2.2,99,0.00,,,0.01,meteobridge,2013-06-19 09:02:00,
2013-06-19 05:07:00,57.6,57.2,29.83,NW,315,1.6,1.6,99,0.00,,,0.01,meteobridge,2013-06-19 09:07:00,
2013-06-19 05:12:00,57.7,57.4,29.83,West,270,3.1,3.1,99,0.00,,,0.01,meteobridge,2013-06-19 09:12:00,
2013-06-19 05:17:00,57.7,57.4,29.84,North,0,0.7,2.2,99,0.00,,,0.01,meteobridge,2013-06-19 09:17:00,
2013-06-19 05:23:00,57.7,57.4,29.84,NW,315,1.6,1.6,99,0.00,,,0.01,meteobridge,2013-06-19 09:23:00,
2013-06-19 05:28:00,57.7,57.4,29.84,SE,135,1.6,1.6,99,0.00,,,0.01,meteobridge,2013-06-19 09:28:00,
2013-06-19 05:33:00,57.7,57.4,29.84,South,180,1.6,3.1,99,0.00,,,0.01,meteobridge,2013-06-19 09:33:00,
2013-06-19 05:38:00,57.6,57.2,29.84,South,180,3.1,3.1,99,0.00,,,0.01,meteobridge,2013-06-19 09:38:00,
2013-06-19 05:43:00,57.6,57.2,29.84,NW,315,0.7,3.1,99,0.00,,,0.01,meteobridge,2013-06-19 09:43:00,
2013-06-19 05:49:00,57.6,57.2,29.84,NE,45,0.7,2.2,99,0.00,,,0.01,meteobridge,2013-06-19 09:49:00,
2013-06-19 05:54:00,57.6,57.2,29.84,North,0,1.6,2.2,99,0.00,,,0.01,meteobridge,2013-06-19 09:54:00,
2013-06-19 05:59:00,57.7,57.4,29.84,SE,135,0.7,1.6,99,0.00,,,0.01,meteobridge,2013-06-19 09:59:00,
2013-06-19 06:04:00,57.7,57.4,29.84,SE,135,2.2,2.2,99,0.01,,,0.02,meteobridge,2013-06-19 10:04:00,
2013-06-19 06:09:00,57.6,57.2,29.84,SE,135,1.6,3.1,99,0.01,,,0.02,meteobridge,2013-06-19 10:09:00,
2013-06-19 06:14:00,57.7,57.4,29.85,West,270,2.2,2.2,99,0.01,,,0.02,meteobridge,2013-06-19 10:14:00,
2013-06-19 06:20:00,57.9,57.6,29.85,West,270,0.7,2.2,99,0.01,,,0.02,meteobridge,2013-06-19 10:20:00,
2013-06-19 06:25:00,58.1,57.7,29.85,SE,135,1.6,1.6,99,0.01,,,0.02,meteobridge,2013-06-19 10:25:00,
2013-06-19 06:30:00,58.1,57.6,29.85,West,270,1.6,2.2,98,0.01,,,0.02,meteobridge,2013-06-19 10:30:00,
2013-06-19 06:35:00,58.3,57.7,29.85,SE,135,3.1,3.1,98,0.01,,,0.02,meteobridge,2013-06-19 10:35:00,
2013-06-19 06:40:00,58.6,58.1,29.85,NW,315,2.2,3.8,98,0.01,,,0.02,meteobridge,2013-06-19 10:40:00,
2013-06-19 06:45:00,59.0,57.9,29.85,East,90,0.7,3.8,96,0.01,,,0.02,meteobridge,2013-06-19 10:45:00,
2013-06-19 06:51:00,59.0,57.9,29.86,NW,315,2.2,3.1,96,0.01,,,0.02,meteobridge,2013-06-19 10:51:00,
2013-06-19 06:56:00,59.0,57.6,29.86,SE,135,4.5,5.4,95,0.01,,,0.02,meteobridge,2013-06-19 10:56:00,
2013-06-19 07:01:00,59.0,57.6,29.86,NW,315,2.2,2.2,95,0.00,,,0.02,meteobridge,2013-06-19 11:01:00,
2013-06-19 07:06:00,59.2,57.7,29.86,ESE,113,1.6,2.2,95,0.00,,,0.02,meteobridge,2013-06-19 11:06:00,
2013-06-19 07:11:00,59.2,57.4,29.87,NE,45,2.2,5.4,94,0.00,,,0.02,meteobridge,2013-06-19 11:11:00,
2013-06-19 07:16:00,59.2,57.4,29.87,SW,225,1.6,4.5,94,0.00,,,0.02,meteobridge,2013-06-19 11:16:00,
2013-06-19 07:22:00,59.5,57.7,29.87,South,180,1.6,2.2,94,0.00,,,0.02,meteobridge,2013-06-19 11:22:00,
2013-06-19 07:27:00,59.5,57.7,29.87,West,270,1.6,3.1,94,0.00,,,0.02,meteobridge,2013-06-19 11:27:00,
2013-06-19 07:32:00,59.7,57.7,29.87,NW,315,1.6,2.2,93,0.00,,,0.02,meteobridge,2013-06-19 11:32:00,
2013-06-19 07:37:00,59.9,57.9,29.87,SE,135,3.8,3.8,93,0.00,,,0.02,meteobridge,2013-06-19 11:37:00,
2013-06-19 07:42:00,60.1,57.7,29.88,North,0,1.6,2.2,92,0.00,,,0.02,meteobridge,2013-06-19 11:42:00,
2013-06-19 07:47:00,60.4,58.1,29.88,West,270,1.6,2.2,92,0.00,,,0.02,meteobridge,2013-06-19 11:47:00,
2013-06-19 07:53:00,60.8,57.6,29.88,NW,315,3.1,3.1,89,0.00,,,0.02,meteobridge,2013-06-19 11:53:00,
2013-06-19 07:58:00,61.0,57.7,29.89,East,90,3.1,4.5,89,0.00,,,0.02,meteobridge,2013-06-19 11:58:00,
2013-06-19 08:03:00,61.3,57.4,29.89,North,0,2.2,2.2,87,0.00,,,0.02,meteobridge,2013-06-19 12:03:00,
2013-06-19 08:08:00,61.7,57.4,29.89,North,0,1.6,1.6,86,0.00,,,0.02,meteobridge,2013-06-19 12:08:00,
2013-06-19 08:13:00,62.4,58.5,29.89,SW,225,2.2,4.5,87,0.00,,,0.02,meteobridge,2013-06-19 12:13:00,
2013-06-19 08:18:00,62.6,57.0,29.90,East,90,3.1,3.1,82,0.00,,,0.02,meteobridge,2013-06-19 12:18:00,
2013-06-19 08:24:00,62.6,57.0,29.90,North,0,2.2,3.8,82,0.00,,,0.02,meteobridge,2013-06-19 12:24:00,
2013-06-19 08:29:00,63.0,57.4,29.90,South,180,3.1,3.1,82,0.00,,,0.02,meteobridge,2013-06-19 12:29:00,
2013-06-19 08:34:00,63.1,57.2,29.90,North,0,2.2,2.2,81,0.00,,,0.02,meteobridge,2013-06-19 12:34:00,
2013-06-19 08:39:00,63.3,57.4,29.90,NW,315,4.5,4.5,81,0.00,,,0.02,meteobridge,2013-06-19 12:39:00,
2013-06-19 08:44:00,63.3,57.0,29.90,West,270,2.2,3.8,80,0.00,,,0.02,meteobridge,2013-06-19 12:44:00,
2013-06-19 08:49:00,63.5,57.2,29.90,SW,225,3.8,3.8,80,0.00,,,0.02,meteobridge,2013-06-19 12:49:00,
2013-06-19 08:55:00,63.5,56.5,29.90,NW,315,3.8,6.0,78,0.00,,,0.02,meteobridge,2013-06-19 12:55:00,
2013-06-19 09:00:00,63.9,56.8,29.90,SE,135,1.6,2.2,78,0.00,,,0.02,meteobridge,2013-06-19 13:00:00,
2013-06-19 09:05:00,64.4,57.0,29.90,South,180,3.8,3.8,77,0.00,,,0.02,meteobridge,2013-06-19 13:05:00,
2013-06-19 09:10:00,64.8,57.0,29.91,South,180,3.8,3.8,76,0.00,,,0.02,meteobridge,2013-06-19 13:10:00,
2013-06-19 09:15:00,64.6,56.5,29.91,SSE,158,1.6,6.0,75,0.00,,,0.02,meteobridge,2013-06-19 13:15:00,
2013-06-19 09:20:00,64.4,55.9,29.91,SE,135,3.1,4.5,74,0.00,,,0.02,meteobridge,2013-06-19 13:20:00,
2013-06-19 09:26:00,64.4,56.3,29.91,North,0,0.7,3.8,75,0.00,,,0.02,meteobridge,2013-06-19 13:26:00,
2013-06-19 09:31:00,64.6,56.5,29.91,South,180,2.2,2.2,75,0.00,,,0.02,meteobridge,2013-06-19 13:31:00,
2013-06-19 09:36:00,64.9,56.1,29.92,NW,315,4.5,4.5,73,0.00,,,0.02,meteobridge,2013-06-19 13:36:00,
2013-06-19 09:41:00,65.1,55.9,29.92,SE,135,2.2,2.2,72,0.00,,,0.02,meteobridge,2013-06-19 13:41:00,
2013-06-19 09:46:00,65.7,56.3,29.92,East,90,1.6,3.1,72,0.00,,,0.02,meteobridge,2013-06-19 13:46:00,
2013-06-19 09:51:00,66.2,55.8,29.92,NW,315,0.7,3.1,69,0.00,,,0.02,meteobridge,2013-06-19 13:51:00,
2013-06-19 09:57:00,66.7,56.3,29.92,South,180,3.8,6.9,69,0.00,,,0.02,meteobridge,2013-06-19 13:57:00,
2013-06-19 10:02:00,66.9,55.2,29.93,SE,135,1.6,3.8,66,0.00,,,0.02,meteobridge,2013-06-19 14:02:00,
2013-06-19 10:07:00,67.1,56.7,29.93,NW,315,3.1,3.1,69,0.00,,,0.02,meteobridge,2013-06-19 14:07:00,
2013-06-19 10:12:00,67.3,55.9,29.93,NW,315,6.0,6.0,67,0.00,,,0.02,meteobridge,2013-06-19 14:12:00,
2013-06-19 10:17:00,68.0,57.0,29.93,East,90,1.6,2.2,68,0.00,,,0.02,meteobridge,2013-06-19 14:17:00,
2013-06-19 10:22:00,68.4,57.7,29.93,SE,135,3.1,3.1,69,0.00,,,0.02,meteobridge,2013-06-19 14:22:00,
2013-06-19 10:28:00,68.4,56.5,29.94,NE,45,3.1,3.1,66,0.00,,,0.02,meteobridge,2013-06-19 14:28:00,
2013-06-19 10:33:00,69.3,58.6,29.94,SE,135,5.4,5.4,69,0.00,,,0.02,meteobridge,2013-06-19 14:33:00,
2013-06-19 10:38:00,71.6,58.8,29.95,SE,135,3.8,3.8,64,0.00,,,0.02,meteobridge,2013-06-19 14:38:00,
2013-06-19 10:43:00,73.0,56.8,29.95,SW,225,3.8,3.8,57,0.00,,,0.02,meteobridge,2013-06-19 14:43:00,
2013-06-19 10:48:00,73.4,57.2,29.95,West,270,1.6,3.8,57,0.00,,,0.02,meteobridge,2013-06-19 14:48:00,
2013-06-19 10:53:00,75.0,60.3,29.95,SE,135,3.8,3.8,60,0.00,,,0.02,meteobridge,2013-06-19 14:53:00,
2013-06-19 10:59:00,76.1,58.3,29.95,SSE,158,3.1,4.5,54,0.00,,,0.02,meteobridge,2013-06-19 14:59:00,
2013-06-19 11:04:00,77.7,60.8,29.95,SE,135,2.2,3.1,56,0.00,,,0.02,meteobridge,2013-06-19 15:04:00,
2013-06-19 11:09:00,78.6,59.0,29.95,South,180,3.8,3.8,51,0.00,,,0.02,meteobridge,2013-06-19 15:09:00,
2013-06-19 11:14:00,78.8,56.8,29.95,North,0,0.7,2.2,47,0.00,,,0.02,meteobridge,2013-06-19 15:14:00,
2013-06-19 11:19:00,79.2,57.2,29.95,SW,225,3.1,3.1,47,0.00,,,0.02,meteobridge,2013-06-19 15:19:00,
2013-06-19 11:24:00,80.2,57.6,29.95,NE,45,0.7,2.2,46,0.00,,,0.02,meteobridge,2013-06-19 15:24:00,
2013-06-19 11:30:00,80.8,58.1,29.95,South,180,3.1,3.1,46,0.00,,,0.02,meteobridge,2013-06-19 15:30:00,
2013-06-19 11:35:00,81.5,58.1,29.95,SE,135,2.2,3.8,45,0.00,,,0.02,meteobridge,2013-06-19 15:35:00,
2013-06-19 11:40:00,81.1,56.5,29.95,North,0,0.7,3.8,43,0.00,,,0.02,meteobridge,2013-06-19 15:40:00,
2013-06-19 11:45:00,81.5,58.6,29.95,SE,135,1.6,5.4,46,0.00,,,0.02,meteobridge,2013-06-19 15:45:00,
2013-06-19 11:50:00,81.9,60.3,29.95,West,270,3.1,3.1,48,0.00,,,0.02,meteobridge,2013-06-19 15:50:00,
2013-06-19 11:55:00,81.5,56.1,29.95,SE,135,2.2,3.1,42,0.00,,,0.02,meteobridge,2013-06-19 15:55:00,
2013-06-19 12:01:00,81.0,56.3,29.95,NW,315,1.6,2.2,43,0.00,,,0.02,meteobridge,2013-06-19 16:01:00,
2013-06-19 12:06:00,81.3,57.4,29.95,SW,225,1.6,1.6,44,0.00,,,0.02,meteobridge,2013-06-19 16:06:00,
2013-06-19 12:11:00,81.9,56.5,29.96,South,180,3.8,3.8,42,0.00,,,0.02,meteobridge,2013-06-19 16:11:00,
2013-06-19 12:16:00,81.7,57.6,29.95,South,180,5.4,5.4,44,0.00,,,0.02,meteobridge,2013-06-19 16:16:00,
2013-06-19 12:21:00,81.9,57.7,29.95,SSE,158,3.1,3.1,44,0.00,,,0.02,meteobridge,2013-06-19 16:21:00,
2013-06-19 12:26:00,81.7,57.0,29.96,SE,135,2.2,3.8,43,0.00,,,0.02,meteobridge,2013-06-19 16:26:00,
2013-06-19 12:32:00,81.3,57.4,29.96,ESE,113,2.2,3.1,44,0.00,,,0.02,meteobridge,2013-06-19 16:32:00,
2013-06-19 12:37:00,81.3,57.9,29.96,SE,135,1.6,3.1,45,0.00,,,0.02,meteobridge,2013-06-19 16:37:00,
2013-06-19 12:42:00,81.9,57.7,29.96,North,0,0.7,2.2,44,0.00,,,0.02,meteobridge,2013-06-19 16:42:00,
2013-06-19 12:47:00,81.7,57.6,29.96,South,180,4.5,4.5,44,0.00,,,0.02,meteobridge,2013-06-19 16:47:00,
2013-06-19 12:52:00,79.9,58.5,29.96,SW,225,3.1,3.1,48,0.00,,,0.02,meteobridge,2013-06-19 16:52:00,
2013-06-19 12:58:00,78.8,56.8,29.96,NW,315,2.2,3.8,47,0.00,,,0.02,meteobridge,2013-06-19 16:58:00,
2013-06-19 13:03:00,78.1,56.8,29.96,North,0,3.1,5.4,48,0.00,,,0.02,meteobridge,2013-06-19 17:03:00,
2013-06-19 13:08:00,77.4,58.3,29.96,South,180,4.5,4.5,52,0.00,,,0.02,meteobridge,2013-06-19 17:08:00,
2013-06-19 13:13:00,76.3,56.8,29.96,South,180,4.5,4.5,51,0.00,,,0.02,meteobridge,2013-06-19 17:13:00,
2013-06-19 13:18:00,75.2,57.4,29.96,SE,135,1.6,5.4,54,0.00,,,0.02,meteobridge,2013-06-19 17:18:00,
2013-06-19 13:23:00,74.8,59.5,29.96,NW,315,2.2,5.4,59,0.00,,,0.02,meteobridge,2013-06-19 17:23:00,
2013-06-19 13:29:00,74.7,59.4,29.96,North,0,1.6,3.1,59,0.00,,,0.02,meteobridge,2013-06-19 17:29:00,
2013-06-19 13:34:00,74.7,58.8,29.97,South,180,3.1,3.1,58,0.00,,,0.02,meteobridge,2013-06-19 17:34:00,
2013-06-19 13:39:00,73.9,58.6,29.97,South,180,3.8,5.4,59,0.00,,,0.02,meteobridge,2013-06-19 17:39:00,
2013-06-19 13:44:00,73.4,59.2,29.97,South,180,4.5,4.5,61,0.00,,,0.02,meteobridge,2013-06-19 17:44:00,
2013-06-19 13:49:00,73.2,59.4,29.97,South,180,4.5,4.5,62,0.00,,,0.02,meteobridge,2013-06-19 17:49:00,
2013-06-19 13:54:00,73.0,59.2,29.97,SE,135,1.6,1.6,62,0.00,,,0.02,meteobridge,2013-06-19 17:54:00,
2013-06-19 14:00:00,73.2,59.9,29.97,North,0,0.7,2.2,63,0.00,,,0.02,meteobridge,2013-06-19 18:00:00,
2013-06-19 14:05:00,73.4,60.1,29.97,South,180,3.1,3.1,63,0.00,,,0.02,meteobridge,2013-06-19 18:05:00,
2013-06-19 14:10:00,73.2,60.3,29.98,West,270,2.2,2.2,64,0.00,,,0.02,meteobridge,2013-06-19 18:10:00,
2013-06-19 14:15:00,72.9,59.5,29.98,SE,135,3.1,3.8,63,0.00,,,0.02,meteobridge,2013-06-19 18:15:00,
2013-06-19 14:20:00,72.5,59.2,29.98,SW,225,1.6,3.1,63,0.00,,,0.02,meteobridge,2013-06-19 18:20:00,
2013-06-19 14:25:00,72.5,59.5,29.98,SW,225,3.1,3.1,64,0.00,,,0.02,meteobridge,2013-06-19 18:25:00,
2013-06-19 14:31:00,72.3,59.5,29.98,NE,45,0.7,2.2,64,0.00,,,0.02,meteobridge,2013-06-19 18:31:00,
2013-06-19 14:36:00,72.3,59.5,29.99,NW,315,3.1,3.1,64,0.00,,,0.02,meteobridge,2013-06-19 18:36:00,
2013-06-19 14:41:00,72.1,58.8,29.99,SE,135,1.6,4.5,63,0.00,,,0.02,meteobridge,2013-06-19 18:41:00,
2013-06-19 14:46:00,72.0,59.2,29.99,South,180,2.2,4.5,64,0.00,,,0.02,meteobridge,2013-06-19 18:46:00,
2013-06-19 14:51:00,72.0,58.3,29.99,NE,45,1.6,4.5,62,0.00,,,0.02,meteobridge,2013-06-19 18:51:00,
2013-06-19 14:56:00,72.0,58.3,29.99,North,0,3.1,3.1,62,0.00,,,0.02,meteobridge,2013-06-19 18:56:00,
2013-06-19 15:02:00,71.8,57.6,29.99,SE,135,1.6,2.2,61,0.00,,,0.02,meteobridge,2013-06-19 19:02:00,
2013-06-19 15:07:00,71.8,58.1,29.99,SE,135,5.4,5.4,62,0.00,,,0.02,meteobridge,2013-06-19 19:07:00,
2013-06-19 15:12:00,71.4,57.2,29.99,North,0,2.2,3.8,61,0.00,,,0.02,meteobridge,2013-06-19 19:12:00,
2013-06-19 15:17:00,71.1,56.8,29.99,SE,135,3.1,3.1,61,0.00,,,0.02,meteobridge,2013-06-19 19:17:00,
2013-06-19 15:22:00,70.7,57.0,30.00,NW,315,2.2,2.2,62,0.00,,,0.02,meteobridge,2013-06-19 19:22:00,
2013-06-19 15:27:00,70.7,56.7,30.00,SW,225,3.8,3.8,61,0.00,,,0.02,meteobridge,2013-06-19 19:27:00,
2013-06-19 15:33:00,70.7,56.7,30.00,SE,135,2.2,2.2,61,0.00,,,0.02,meteobridge,2013-06-19 19:33:00,
2013-06-19 15:38:00,70.7,56.7,30.00,West,270,4.5,4.5,61,0.00,,,0.02,meteobridge,2013-06-19 19:38:00,
2013-06-19 15:43:00,70.7,55.6,30.00,SE,135,2.2,3.1,59,0.00,,,0.02,meteobridge,2013-06-19 19:43:00,
2013-06-19 15:48:00,70.5,55.6,30.00,South,180,3.8,3.8,59,0.00,,,0.02,meteobridge,2013-06-19 19:48:00,
2013-06-19 15:53:00,70.3,55.8,30.01,South,180,1.6,1.6,60,0.00,,,0.02,meteobridge,2013-06-19 19:53:00,
2013-06-19 15:58:00,70.5,55.9,30.00,SE,135,0.7,3.1,60,0.00,,,0.02,meteobridge,2013-06-19 19:58:00,
2013-06-19 16:04:00,70.7,55.6,30.01,East,90,6.0,6.0,59,0.00,,,0.02,meteobridge,2013-06-19 20:04:00,
2013-06-19 16:09:00,70.2,54.1,30.01,West,270,3.1,3.1,57,0.00,,,0.02,meteobridge,2013-06-19 20:09:00,
2013-06-19 16:14:00,69.8,53.4,30.01,West,270,3.1,3.1,56,0.00,,,0.02,meteobridge,2013-06-19 20:14:00,
2013-06-19 16:19:00,69.4,54.0,30.01,SE,135,2.2,2.2,58,0.00,,,0.02,meteobridge,2013-06-19 20:19:00,
2013-06-19 16:24:00,69.6,54.1,30.01,South,180,3.8,3.8,58,0.00,,,0.02,meteobridge,2013-06-19 20:24:00,
2013-06-19 16:29:00,69.6,54.7,30.01,South,180,1.6,1.6,59,0.00,,,0.02,meteobridge,2013-06-19 20:29:00,
2013-06-19 16:35:00,69.8,52.9,30.01,SE,135,3.1,3.1,55,0.00,,,0.02,meteobridge,2013-06-19 20:35:00,
2013-06-19 16:40:00,70.2,53.8,30.01,South,180,2.2,3.8,56,0.00,,,0.02,meteobridge,2013-06-19 20:40:00,
2013-06-19 16:45:00,70.5,53.6,30.01,NE,45,1.6,3.1,55,0.00,,,0.02,meteobridge,2013-06-19 20:45:00,
2013-06-19 16:50:00,71.4,54.5,30.01,SE,135,1.6,3.8,55,0.00,,,0.02,meteobridge,2013-06-19 20:50:00,
2013-06-19 16:55:00,72.7,54.5,30.01,North,0,0.7,1.6,53,0.00,,,0.02,meteobridge,2013-06-19 20:55:00,
2013-06-19 17:00:00,73.6,53.8,30.01,SE,135,1.6,1.6,50,0.00,,,0.02,meteobridge,2013-06-19 21:00:00,
2013-06-19 17:06:00,72.7,53.4,30.01,West,270,1.6,1.6,51,0.00,,,0.02,meteobridge,2013-06-19 21:06:00,
2013-06-19 17:11:00,72.3,53.2,30.01,SE,135,0.7,1.6,51,0.00,,,0.02,meteobridge,2013-06-19 21:11:00,
2013-06-19 17:16:00,71.2,52.2,30.01,South,180,3.1,3.1,51,0.00,,,0.02,meteobridge,2013-06-19 21:16:00,
2013-06-19 17:21:00,70.2,51.8,30.01,SW,225,3.1,3.8,52,0.00,,,0.02,meteobridge,2013-06-19 21:21:00,
2013-06-19 17:26:00,69.4,52.2,30.01,South,180,1.6,1.6,54,0.00,,,0.02,meteobridge,2013-06-19 21:26:00,
2013-06-19 17:31:00,69.1,51.3,30.01,West,270,0.7,3.8,53,0.00,,,0.02,meteobridge,2013-06-19 21:31:00,
2013-06-19 17:37:00,68.9,51.1,30.01,ESE,113,0.7,0.7,53,0.00,,,0.02,meteobridge,2013-06-19 21:37:00,
2013-06-19 17:42:00,69.1,51.3,30.01,East,90,0.0,2.2,53,0.00,,,0.02,meteobridge,2013-06-19 21:42:00,
2013-06-19 17:47:00,69.6,52.2,30.01,SE,135,0.7,2.2,54,0.00,,,0.02,meteobridge,2013-06-19 21:47:00,
2013-06-19 17:52:00,69.6,52.2,30.02,South,180,0.7,1.6,54,0.00,,,0.02,meteobridge,2013-06-19 21:52:00,
2013-06-19 17:57:00,69.1,51.8,30.02,South,180,0.7,1.6,54,0.00,,,0.02,meteobridge,2013-06-19 21:57:00,
2013-06-19 18:02:00,68.5,51.8,30.02,South,180,2.2,2.2,55,0.00,,,0.02,meteobridge,2013-06-19 22:02:00,
2013-06-19 18:08:00,68.0,50.7,30.02,NW,315,1.6,2.2,54,0.00,,,0.02,meteobridge,2013-06-19 22:08:00,
2013-06-19 18:13:00,67.6,51.4,30.02,West,270,0.7,1.6,56,0.00,,,0.02,meteobridge,2013-06-19 22:13:00,
2013-06-19 18:18:00,67.6,51.8,30.02,South,180,2.2,2.2,57,0.00,,,0.02,meteobridge,2013-06-19 22:18:00,
2013-06-19 18:23:00,67.3,51.4,30.02,SE,135,2.2,2.2,57,0.00,,,0.02,meteobridge,2013-06-19 22:23:00,
2013-06-19 18:28:00,67.3,52.0,30.02,South,180,1.6,1.6,58,0.00,,,0.02,meteobridge,2013-06-19 22:28:00,
2013-06-19 18:33:00,67.3,52.0,30.03,South,180,0.0,1.6,58,0.00,,,0.02,meteobridge,2013-06-19 22:33:00,
2013-06-19 18:39:00,67.3,52.0,30.03,South,180,0.7,0.7,58,0.00,,,0.02,meteobridge,2013-06-19 22:39:00,
2013-06-19 18:44:00,66.9,51.6,30.03,NW,315,0.0,0.7,58,0.00,,,0.02,meteobridge,2013-06-19 22:44:00,
2013-06-19 18:49:00,66.6,52.2,30.03,South,180,1.6,1.6,60,0.00,,,0.02,meteobridge,2013-06-19 22:49:00,
2013-06-19 18:54:00,66.0,51.8,30.03,South,180,0.7,0.7,60,0.00,,,0.02,meteobridge,2013-06-19 22:54:00,
2013-06-19 18:59:00,65.8,52.0,30.03,South,180,0.7,0.7,61,0.00,,,0.02,meteobridge,2013-06-19 22:59:00,
2013-06-19 19:05:00,65.7,52.3,30.04,South,180,0.0,0.7,62,0.00,,,0.02,meteobridge,2013-06-19 23:05:00,
2013-06-19 19:10:00,65.5,52.2,30.03,South,180,0.7,1.6,62,0.00,,,0.02,meteobridge,2013-06-19 23:10:00,
2013-06-19 19:15:00,64.9,52.0,30.03,South,180,1.6,1.6,63,0.00,,,0.02,meteobridge,2013-06-19 23:15:00,
2013-06-19 19:20:00,64.8,52.3,30.04,South,180,0.0,0.0,64,0.00,,,0.02,meteobridge,2013-06-19 23:20:00,
2013-06-19 19:25:00,64.2,51.4,30.04,South,180,1.6,2.2,63,0.00,,,0.02,meteobridge,2013-06-19 23:25:00,
2013-06-19 19:30:00,63.9,51.4,30.04,South,180,1.6,1.6,64,0.00,,,0.02,meteobridge,2013-06-19 23:30:00,
2013-06-19 19:36:00,63.7,51.6,30.04,South,180,0.7,0.7,65,0.00,,,0.02,meteobridge,2013-06-19 23:36:00,
2013-06-19 19:41:00,63.3,51.4,30.04,South,180,0.7,0.7,65,0.00,,,0.02,meteobridge,2013-06-19 23:41:00,
2013-06-19 19:46:00,62.8,50.9,30.04,South,180,0.7,0.7,65,0.00,,,0.02,meteobridge,2013-06-19 23:46:00,
2013-06-19 19:51:00,62.4,50.9,30.04,South,180,0.7,0.7,66,0.00,,,0.02,meteobridge,2013-06-19 23:51:00,
2013-06-19 19:56:00,61.9,50.7,30.04,South,180,0.7,0.7,67,0.00,,,0.02,meteobridge,2013-06-19 23:56:00,
2013-06-19 20:01:00,61.5,50.9,30.04,South,180,0.7,0.7,68,0.00,,,0.02,meteobridge,2013-06-20 00:01:00,
2013-06-19 20:07:00,61.0,50.7,30.04,South,180,0.7,0.7,69,0.00,,,0.02,meteobridge,2013-06-20 00:07:00,
2013-06-19 20:12:00,60.4,51.1,30.04,South,180,0.7,0.7,71,0.00,,,0.02,meteobridge,2013-06-20 00:12:00,
2013-06-19 20:17:00,60.3,51.3,30.04,South,180,0.7,0.7,72,0.00,,,0.02,meteobridge,2013-06-20 00:17:00,
2013-06-19 20:22:00,59.9,51.3,30.05,South,180,0.0,0.7,73,0.00,,,0.02,meteobridge,2013-06-20 00:22:00,
2013-06-19 20:27:00,59.5,50.9,30.05,South,180,0.0,0.0,73,0.00,,,0.02,meteobridge,2013-06-20 00:27:00,
2013-06-19 20:32:00,59.2,50.9,30.05,South,180,0.7,0.7,74,0.00,,,0.02,meteobridge,2013-06-20 00:32:00,
2013-06-19 20:38:00,58.8,50.9,30.06,South,180,0.7,1.6,75,0.00,,,0.02,meteobridge,2013-06-20 00:38:00,
2013-06-19 20:43:00,58.5,50.5,30.05,South,180,0.0,0.0,75,0.00,,,0.02,meteobridge,2013-06-20 00:43:00,
2013-06-19 20:48:00,58.1,50.5,30.06,South,180,0.7,0.7,76,0.00,,,0.02,meteobridge,2013-06-20 00:48:00,
2013-06-19 20:53:00,57.7,50.2,30.06,South,180,0.0,0.7,76,0.00,,,0.02,meteobridge,2013-06-20 00:53:00,
2013-06-19 20:58:00,57.4,50.2,30.06,South,180,0.0,0.0,77,0.00,,,0.02,meteobridge,2013-06-20 00:58:00,
2013-06-19 21:03:00,57.2,50.0,30.06,South,180,0.0,0.0,77,0.00,,,0.02,meteobridge,2013-06-20 01:03:00,
2013-06-19 21:09:00,57.0,50.5,30.06,South,180,0.0,0.0,79,0.00,,,0.02,meteobridge,2013-06-20 01:09:00,
2013-06-19 21:14:00,56.8,50.7,30.07,South,180,0.0,0.0,80,0.00,,,0.02,meteobridge,2013-06-20 01:14:00,
2013-06-19 21:19:00,56.7,50.9,30.07,South,180,0.0,0.7,81,0.00,,,0.02,meteobridge,2013-06-20 01:19:00,
2013-06-19 21:24:00,56.5,50.7,30.07,South,180,0.7,0.7,81,0.00,,,0.02,meteobridge,2013-06-20 01:24:00,
2013-06-19 21:29:00,56.3,50.9,30.08,South,180,0.0,0.7,82,0.00,,,0.02,meteobridge,2013-06-20 01:29:00,
2013-06-19 21:34:00,55.9,50.5,30.08,South,180,0.7,0.7,82,0.00,,,0.02,meteobridge,2013-06-20 01:34:00,
2013-06-19 21:40:00,55.8,50.4,30.08,South,180,0.7,0.7,82,0.00,,,0.02,meteobridge,2013-06-20 01:40:00,
2013-06-19 21:45:00,55.8,50.7,30.08,South,180,0.0,0.7,83,0.00,,,0.02,meteobridge,2013-06-20 01:45:00,
2013-06-19 21:50:00,55.8,51.1,30.08,South,180,0.7,0.7,84,0.00,,,0.02,meteobridge,2013-06-20 01:50:00,
2013-06-19 21:55:00,55.8,51.3,30.09,South,180,0.0,0.7,85,0.00,,,0.02,meteobridge,2013-06-20 01:55:00,
2013-06-19 22:00:00,55.6,51.1,30.09,South,180,0.7,1.6,85,0.00,,,0.02,meteobridge,2013-06-20 02:00:00,
2013-06-19 22:05:00,55.6,51.4,30.09,South,180,1.6,1.6,86,0.00,,,0.02,meteobridge,2013-06-20 02:05:00,
2013-06-19 22:11:00,55.6,51.4,30.09,South,180,1.6,1.6,86,0.00,,,0.02,meteobridge,2013-06-20 02:11:00,
2013-06-19 22:16:00,55.6,51.8,30.10,South,180,0.0,0.0,87,0.00,,,0.02,meteobridge,2013-06-20 02:16:00,
2013-06-19 22:21:00,55.8,52.3,30.10,North,0,0.0,1.6,88,0.00,,,0.02,meteobridge,2013-06-20 02:21:00,
2013-06-19 22:26:00,55.8,52.3,30.11,East,90,0.0,0.0,88,0.00,,,0.02,meteobridge,2013-06-20 02:26:00,
2013-06-19 22:31:00,55.8,52.3,30.11,South,180,0.0,0.0,88,0.00,,,0.02,meteobridge,2013-06-20 02:31:00,
2013-06-19 22:36:00,55.9,52.5,30.11,South,180,0.0,0.0,88,0.00,,,0.02,meteobridge,2013-06-20 02:36:00,
2013-06-19 22:42:00,56.1,52.7,30.11,South,180,0.0,0.0,88,0.00,,,0.02,meteobridge,2013-06-20 02:42:00,
2013-06-19 22:47:00,56.3,53.1,30.11,South,180,0.0,0.0,89,0.00,,,0.02,meteobridge,2013-06-20 02:47:00,
2013-06-19 22:52:00,56.5,53.2,30.11,South,180,0.0,0.0,89,0.00,,,0.02,meteobridge,2013-06-20 02:52:00,
2013-06-19 22:57:00,56.5,53.2,30.11,South,180,0.0,0.0,89,0.00,,,0.02,meteobridge,2013-06-20 02:57:00,
2013-06-19 23:02:00,56.7,53.4,30.11,South,180,0.0,0.0,89,0.00,,,0.02,meteobridge,2013-06-20 03:02:00,
2013-06-19 23:07:00,56.7,53.4,30.11,South,180,0.0,0.0,89,0.00,,,0.02,meteobridge,2013-06-20 03:07:00,
2013-06-19 23:13:00,56.7,53.4,30.11,South,180,0.0,0.0,89,0.00,,,0.02,meteobridge,2013-06-20 03:13:00,
2013-06-19 23:18:00,56.7,53.1,30.11,South,180,0.0,0.0,88,0.00,,,0.02,meteobridge,2013-06-20 03:18:00,
2013-06-19 23:23:00,56.7,53.1,30.12,South,180,0.0,0.0,88,0.00,,,0.02,meteobridge,2013-06-20 03:23:00,
2013-06-19 23:28:00,56.5,52.7,30.12,South,180,0.0,0.0,87,0.00,,,0.02,meteobridge,2013-06-20 03:28:00,
2013-06-19 23:33:00,56.5,52.7,30.12,South,180,0.0,0.0,87,0.00,,,0.02,meteobridge,2013-06-20 03:33:00,
2013-06-19 23:38:00,56.3,52.5,30.12,South,180,0.0,0.0,87,0.00,,,0.02,meteobridge,2013-06-20 03:38:00,
2013-06-19 23:44:00,56.1,52.3,30.12,South,180,0.0,0.0,87,0.00,,,0.02,meteobridge,2013-06-20 03:44:00,
2013-06-19 23:49:00,56.3,52.9,30.12,NW,315,0.0,0.0,88,0.00,,,0.02,meteobridge,2013-06-20 03:49:00,
2013-06-19 23:54:00,56.3,53.1,30.12,SE,135,0.0,0.0,89,0.00,,,0.02,meteobridge,2013-06-20 03:54:00,
2013-06-19 23:59:00,56.3,53.1,30.12,South,180,0.0,0.0,89,0.00,,,0.02,meteobridge,2013-06-20 03:59:00,